createdAt,value
2022-08-27T00:03:29.976Z,64.94
2022-08-27T00:13:33.382Z,65.33
2022-08-27T00:23:38.418Z,63.87
2022-08-27T00:33:41.822Z,64.59
2022-08-27T00:43:49.187Z,64.62
2022-08-27T00:53:53.537Z,64.70
2022-08-27T01:04:06.439Z,64.66
2022-08-27T01:14:10.159Z,65.67
2022-08-27T01:24:30.591Z,65.37
2022-08-27T01:34:33.914Z,66.29
2022-08-27T01:44:49.264Z,66.62
2022-08-27T01:54:52.814Z,67.17
2022-08-27T02:04:57.396Z,65.96
2022-08-27T02:15:01.564Z,65.97
2022-08-27T02:25:10.234Z,66.38
2022-08-27T02:35:13.959Z,65.56
2022-08-27T02:45:20.461Z,66.53
2022-08-27T02:55:23.960Z,65.05
2022-08-27T03:05:29.235Z,65.77
2022-08-27T03:15:32.595Z,65.56
2022-08-27T03:25:37.379Z,66.12
2022-08-27T03:35:40.783Z,65.98
2022-08-27T03:45:48.362Z,67.09
2022-08-27T03:56:04.761Z,65.98
2022-08-27T04:06:09.574Z,66.01
2022-08-27T04:16:12.836Z,65.79
2022-08-27T04:26:17.445Z,66.04
2022-08-27T04:36:21.426Z,66.55
2022-08-27T04:46:28.732Z,66.04
2022-08-27T04:56:32.529Z,65.79
2022-08-27T05:06:37.735Z,65.39
2022-08-27T05:16:41.108Z,65.42
2022-08-27T05:26:45.920Z,64.69
2022-08-27T05:36:49.350Z,64.99
2022-08-27T05:46:54.168Z,64.71
2022-08-27T05:56:57.306Z,62.87
2022-08-27T06:07:03.115Z,57.82
2022-08-27T06:17:07.777Z,53.97
2022-08-27T06:27:14.538Z,53.68
2022-08-27T06:37:17.701Z,50.15
2022-08-27T06:47:22.367Z,51.64
2022-08-27T06:57:25.607Z,54.55
2022-08-27T07:07:34.457Z,55.68
2022-08-27T07:17:41.940Z,56.19
2022-08-27T07:27:46.833Z,54.90
2022-08-27T07:37:50.015Z,54.00
2022-08-27T07:47:54.912Z,53.65
2022-08-27T07:57:58.114Z,55.40
2022-08-27T08:08:02.775Z,53.24
2022-08-27T08:18:06.116Z,51.19
2022-08-27T08:28:11.650Z,48.62
2022-08-27T08:38:15.121Z,42.96
2022-08-27T08:48:22.363Z,37.94
2022-08-27T08:58:34.567Z,37.93
2022-08-27T09:08:42.102Z,36.21
2022-08-27T09:18:45.795Z,36.20
2022-08-27T09:29:20.111Z,32.97
2022-08-27T09:39:29.707Z,32.76
2022-08-27T09:49:36.901Z,30.77
2022-08-27T09:59:42.790Z,31.65
2022-08-27T10:09:52.083Z,31.24
2022-08-27T10:20:03.349Z,28.26
2022-08-27T10:30:10.230Z,27.84
2022-08-27T10:40:18.459Z,24.28
2022-08-27T10:50:29.048Z,26.10
2022-08-27T11:00:41.213Z,25.62
2022-08-27T11:10:48.997Z,25.02
2022-08-27T11:20:55.488Z,27.62
2022-08-27T11:31:04.989Z,24.33
2022-08-27T11:41:33.353Z,26.25
2022-08-27T11:51:58.652Z,26.36
2022-08-27T12:02:14.441Z,24.23
2022-08-27T12:12:23.371Z,25.59
2022-08-27T12:22:56.100Z,25.55
2022-08-27T12:33:05.749Z,25.69
2022-08-27T12:43:13.640Z,24.71
2022-08-27T12:53:36.355Z,24.21
2022-08-27T13:03:41.350Z,25.20
2022-08-27T13:13:46.201Z,23.61
2022-08-27T13:23:55.195Z,24.90
2022-08-27T13:34:00.200Z,24.37
2022-08-27T13:44:08.539Z,23.93
2022-08-27T13:54:14.314Z,23.64
2022-08-27T14:04:24.025Z,24.72
2022-08-27T14:14:28.817Z,25.16
2022-08-27T14:24:32.014Z,27.23
2022-08-27T14:34:37.085Z,27.60
2022-08-27T14:44:40.528Z,28.30
2022-08-27T14:54:45.308Z,26.94
2022-08-27T15:04:48.894Z,26.71
2022-08-27T15:14:53.494Z,26.44
2022-08-27T15:24:57.855Z,27.33
2022-08-27T15:35:05.122Z,27.95
2022-08-27T15:45:09.943Z,29.35
2022-08-27T15:55:22.533Z,29.93
2022-08-27T16:05:32.948Z,29.51
2022-08-27T16:15:39.541Z,29.11
2022-08-27T16:25:43.127Z,28.97
2022-08-27T16:35:48.369Z,30.18
2022-08-27T16:45:52.843Z,32.20
2022-08-27T16:55:57.561Z,33.50
2022-08-27T17:06:00.733Z,37.78
2022-08-27T17:16:07.306Z,40.00
2022-08-27T17:26:12.322Z,41.62
2022-08-27T17:36:16.981Z,42.94
2022-08-27T17:46:20.270Z,44.15
2022-08-27T17:56:25.069Z,46.11
2022-08-27T18:06:31.097Z,48.10
2022-08-27T18:16:36.080Z,49.37
2022-08-27T18:26:39.926Z,49.35
2022-08-27T18:36:44.549Z,50.68
2022-08-27T18:46:48.161Z,51.54
2022-08-27T18:56:52.720Z,52.21
2022-08-27T19:06:55.856Z,52.43
2022-08-27T19:17:03.326Z,53.11
2022-08-27T19:27:07.397Z,52.09
2022-08-27T19:37:22.158Z,52.79
2022-08-27T19:47:26.029Z,53.76
2022-08-27T19:57:30.707Z,53.14
2022-08-27T20:07:35.216Z,53.02
2022-08-27T20:17:39.858Z,51.66
2022-08-27T20:27:43.112Z,53.84
2022-08-27T20:37:47.953Z,54.46
2022-08-27T20:47:51.584Z,54.32
2022-08-27T20:58:13.855Z,54.89
2022-08-27T21:08:19.314Z,55.24
2022-08-27T21:18:29.213Z,56.12
2022-08-27T21:28:32.896Z,56.29
2022-08-27T21:38:37.463Z,58.26
2022-08-27T21:48:40.623Z,58.16
2022-08-27T21:58:45.240Z,59.19
2022-08-27T22:08:48.976Z,60.27
2022-08-27T22:18:54.689Z,60.62
2022-08-27T22:28:58.410Z,60.83
2022-08-27T22:39:04.088Z,61.17
2022-08-27T22:49:07.393Z,61.93
2022-08-27T22:59:11.947Z,61.74
2022-08-27T23:09:15.200Z,62.06
2022-08-27T23:19:19.945Z,61.68
2022-08-27T23:29:23.238Z,62.69
2022-08-27T23:39:27.834Z,62.08
2022-08-27T23:49:32.281Z,63.23
2022-08-27T23:59:36.878Z,61.95
